This is the latest recevied weather packets stored in our database for station/object EB2EMZ-14. If no packets are shown the sender has not sent any weather packets the latest 10 day(s).
| Time | Temp. | Humidity | Pressure | Rain* | Wind** | Luminosity | Snow |
|---|---|---|---|---|---|---|---|
| 1777991708 | 10.56° C | 78% | 1012.2 hPa | 0 mm | - | 0 W/m² | - |
| 1777991410 | 11.11° C | 77% | 1012.2 hPa | 0 mm | - | 0 W/m² | - |
| 1777991108 | 11.11° C | 76% | 1012.2 hPa | 0 mm | - | 0 W/m² | - |
| 1777990811 | 11.11° C | 76% | 1012.2 hPa | 0 mm | - | 0 W/m² | - |
| 1777990508 | 11.67° C | 76% | 1012.2 hPa | 0 mm | - | 0 W/m² | - |
| 1777989908 | 12.22° C | 74% | 1012.3 hPa | 0 mm | - | 0 W/m² | - |
| 1777989609 | 12.78° C | 72% | 1012.2 hPa | 0 mm | - | 0 W/m² | - |
| 1777989309 | 12.78° C | 72% | 1012 hPa | 0 mm | - | 0 W/m² | - |
| 1777989008 | 13.33° C | 70% | 1011.9 hPa | 0 mm | - | 0 W/m² | - |
| 1777988708 | 13.89° C | 70% | 1011.9 hPa | 0 mm | - | 0 W/m² | - |
| 1777988409 | 14.44° C | 70% | 1011.9 hPa | 0 mm | - | 0 W/m² | - |
| 1777988109 | 14.44° C | 71% | 1011.9 hPa | 0 mm | - | 0 W/m² | - |
| 1777987809 | 15° C | 72% | 1011.7 hPa | 0.51 mm | - | 0 W/m² | - |
| 1777987509 | 14.44° C | 74% | 1011.8 hPa | 1.02 mm | - | 0 W/m² | - |
| 1777987209 | 14.44° C | 76% | 1011.8 hPa | 1.02 mm | - | 0 W/m² | - |
| 1777986908 | 13.89° C | 78% | 1011.8 hPa | 1.02 mm | - | 0 W/m² | - |
| 1777986608 | 12.78° C | 81% | 1011.7 hPa | 1.52 mm | - | 0 W/m² | - |
| 1777986309 | 11.67° C | 81% | 1011.5 hPa | 1.52 mm | - | 0 W/m² | - |
| 1777986008 | 11.11° C | 82% | 1011.7 hPa | 1.52 mm | - | 0 W/m² | - |
| 1777985708 | 10° C | 82% | 1011.7 hPa | 1.52 mm | - | 0 W/m² | - |
| 1777985409 | 9.44° C | 82% | 1011.7 hPa | 1.52 mm | - | 0 W/m² | - |
| 1777985108 | 8.89° C | 82% | 1011.7 hPa | 1.52 mm | - | 0 W/m² | - |
| 1777984810 | 8.89° C | 81% | 1011.8 hPa | 1.52 mm | - | 0 W/m² | - |
| 1777984510 | 8.89° C | 79% | 1012 hPa | 2.03 mm | - | 0 W/m² | - |
| 1777984210 | 9.44° C | 77% | 1012.2 hPa | 1.52 mm | - | 0 W/m² | - |
* Rain latest hour (hover to see other rain measurements)
** Current wind speed in m/s (hover to see current wind gust speed)